Allerton, Illinois
Current Conditions -  °F | °C
As of 3:53 AM on Sunday 26 Oct 2014 (Local Time) from KCMI Reporting Station
Clear Clear  
Wind Chill: 44°   Ceiling: Unl
Heat Index: 46°   Visibility: 10mi
Dew Point: 36°   Wind: 5mph
Humidity: 68%   Direction: 300°WNW
Pressure: 30.02"   Gusts: NA
Location:  39.91°N, 87.94°W
Report Text: KCMI 260853Z AUTO 30004KT 10SM CLR 08/02 A3002 RMK AO2 SLP164 T00780022 50002 $
Loading
Personal Weather Stations






























Interactive Weather Map
Tropical Storm Tracking
New forecast layout! Learn more

10-Day Weather Forecast

Advertisements
Track Severe Weather on mobile